createdAt,value
2023-05-14T00:00:26.850Z,100.00
2023-05-14T00:02:54.389Z,100.00
2023-05-14T00:05:21.810Z,100.00
2023-05-14T00:07:50.393Z,100.00
2023-05-14T00:10:17.802Z,100.00
2023-05-14T00:12:44.936Z,100.00
2023-05-14T00:15:12.113Z,100.00
2023-05-14T00:17:39.352Z,100.00
2023-05-14T00:20:07.364Z,100.00
2023-05-14T00:22:36.012Z,100.00
2023-05-14T00:25:06.336Z,100.00
2023-05-14T00:27:33.627Z,100.00
2023-05-14T00:30:00.817Z,100.00
2023-05-14T00:32:28.011Z,100.00
2023-05-14T00:34:55.308Z,100.00
2023-05-14T00:37:22.532Z,100.00
2023-05-14T00:39:49.735Z,100.00
2023-05-14T00:42:18.267Z,100.00
2023-05-14T00:44:45.456Z,100.00
2023-05-14T00:47:13.210Z,100.00
2023-05-14T00:49:40.940Z,100.00
2023-05-14T00:52:08.191Z,100.00
2023-05-14T00:54:35.642Z,100.00
2023-05-14T00:57:03.594Z,100.00
2023-05-14T00:59:32.693Z,100.00
2023-05-14T01:02:00.168Z,100.00
2023-05-14T01:04:27.625Z,100.00
2023-05-14T01:07:04.116Z,100.00
2023-05-14T01:09:41.003Z,100.00
2023-05-14T01:12:16.339Z,100.00
2023-05-14T01:14:54.811Z,100.00
2023-05-14T01:17:22.955Z,100.00
2023-05-14T01:19:50.997Z,100.00
2023-05-14T01:22:20.630Z,100.00
2023-05-14T01:24:47.806Z,100.00
2023-05-14T01:27:20.585Z,100.00
2023-05-14T01:29:55.632Z,100.00
2023-05-14T01:32:24.472Z,100.00
2023-05-14T01:34:52.972Z,100.00
2023-05-14T01:37:22.593Z,100.00
2023-05-14T01:39:51.765Z,100.00
2023-05-14T01:42:19.496Z,100.00
2023-05-14T01:44:46.769Z,100.00
2023-05-14T01:47:14.046Z,100.00
2023-05-14T01:49:41.198Z,100.00
2023-05-14T01:52:08.492Z,100.00
2023-05-14T01:54:37.057Z,100.00
2023-05-14T01:57:04.494Z,100.00
2023-05-14T01:59:31.674Z,100.00
2023-05-14T02:01:58.930Z,100.00
2023-05-14T02:04:26.437Z,100.00
2023-05-14T02:06:53.695Z,100.00
2023-05-14T02:09:20.888Z,100.00
2023-05-14T02:11:49.436Z,100.00
2023-05-14T02:14:16.824Z,100.00
2023-05-14T02:16:44.004Z,100.00
2023-05-14T02:19:11.283Z,100.00
2023-05-14T02:21:38.579Z,100.00
2023-05-14T02:24:05.928Z,100.00
2023-05-14T02:26:33.114Z,100.00
2023-05-14T02:29:01.660Z,100.00
2023-05-14T02:31:29.169Z,100.00
2023-05-14T02:33:56.827Z,100.00
2023-05-14T02:36:23.974Z,100.00
2023-05-14T02:38:51.136Z,100.00
2023-05-14T02:41:18.341Z,100.00
2023-05-14T02:43:45.548Z,100.00
2023-05-14T02:46:14.198Z,100.00
2023-05-14T02:48:41.369Z,100.00
2023-05-14T02:51:08.628Z,100.00
2023-05-14T02:53:35.886Z,100.00
2023-05-14T02:56:03.334Z,100.00
2023-05-14T02:58:30.546Z,100.00
2023-05-14T03:00:57.785Z,100.00
2023-05-14T03:03:26.837Z,100.00
2023-05-14T03:05:54.429Z,100.00
2023-05-14T03:08:21.667Z,100.00
2023-05-14T03:10:48.876Z,100.00
2023-05-14T03:13:16.080Z,100.00
2023-05-14T03:15:43.271Z,100.00
2023-05-14T03:18:10.411Z,100.00
2023-05-14T03:20:39.094Z,100.00
2023-05-14T03:23:06.462Z,100.00
2023-05-14T03:25:33.643Z,100.00
2023-05-14T03:28:00.847Z,100.00
2023-05-14T03:30:28.321Z,100.00
2023-05-14T03:32:55.604Z,100.00
2023-05-14T03:35:22.866Z,100.00
2023-05-14T03:37:51.518Z,100.00
2023-05-14T03:40:18.711Z,100.00
2023-05-14T03:42:45.910Z,100.00
2023-05-14T03:45:13.049Z,100.00
2023-05-14T03:47:40.245Z,100.00
2023-05-14T03:50:08.693Z,100.00
2023-05-14T03:52:35.957Z,100.00
2023-05-14T03:55:05.595Z,100.00
2023-05-14T03:57:32.788Z,100.00
2023-05-14T03:59:59.928Z,100.00
2023-05-14T04:02:27.161Z,100.00
2023-05-14T04:04:56.042Z,100.00
2023-05-14T04:07:23.344Z,100.00
2023-05-14T04:09:50.474Z,100.00
2023-05-14T04:12:20.062Z,100.00
2023-05-14T04:14:47.261Z,100.00
2023-05-14T04:17:14.438Z,100.00
2023-05-14T04:19:41.882Z,100.00
2023-05-14T04:22:09.104Z,100.00
2023-05-14T04:24:36.267Z,100.00
2023-05-14T04:27:03.940Z,100.00
2023-05-14T04:29:32.606Z,100.00
2023-05-14T04:31:59.849Z,100.00
2023-05-14T04:34:27.091Z,100.00
2023-05-14T04:36:54.302Z,100.00
2023-05-14T04:39:21.460Z,100.00
2023-05-14T04:41:48.666Z,100.00
2023-05-14T04:44:15.842Z,100.00
2023-05-14T04:46:44.320Z,100.00
2023-05-14T04:49:11.518Z,100.00
2023-05-14T04:51:38.726Z,98.37
2023-05-14T04:54:06.024Z,96.71
2023-05-14T04:56:33.236Z,95.55
2023-05-14T04:59:00.401Z,94.00
2023-05-14T05:01:27.666Z,93.71
2023-05-14T05:03:56.311Z,93.09
2023-05-14T05:06:23.538Z,93.96
2023-05-14T05:08:50.669Z,93.02
2023-05-14T05:11:17.828Z,91.54
2023-05-14T05:13:45.074Z,90.62
2023-05-14T05:16:12.336Z,89.98
2023-05-14T05:18:39.655Z,90.46
2023-05-14T05:21:08.186Z,90.05
2023-05-14T05:23:35.395Z,91.23
2023-05-14T05:26:02.546Z,91.42
2023-05-14T05:28:29.733Z,91.76
2023-05-14T05:30:56.971Z,90.41
2023-05-14T05:33:24.225Z,88.73
2023-05-14T05:35:51.392Z,88.55
2023-05-14T05:38:19.898Z,87.97
2023-05-14T05:40:47.128Z,87.51
2023-05-14T05:43:15.142Z,85.43
2023-05-14T05:45:42.340Z,85.10
2023-05-14T05:48:09.528Z,84.63
2023-05-14T05:50:36.676Z,85.31
2023-05-14T05:53:04.220Z,86.21
2023-05-14T05:55:32.750Z,84.72
2023-05-14T05:57:59.962Z,83.22
2023-05-14T06:00:27.273Z,84.45
2023-05-14T06:02:54.527Z,83.37
2023-05-14T06:05:21.831Z,83.85
2023-05-14T06:07:49.074Z,83.47
2023-05-14T06:10:16.328Z,82.42
2023-05-14T06:12:44.850Z,82.21
2023-05-14T06:15:12.310Z,81.52
2023-05-14T06:17:39.635Z,81.36
2023-05-14T06:20:08.072Z,81.23
2023-05-14T06:22:35.506Z,81.92
2023-05-14T06:25:03.030Z,80.61
2023-05-14T06:27:30.222Z,80.33
2023-05-14T06:29:58.800Z,80.05
2023-05-14T06:32:26.032Z,80.37
2023-05-14T06:34:53.201Z,78.91
2023-05-14T06:37:20.339Z,78.30
2023-05-14T06:39:47.471Z,79.66
2023-05-14T06:42:14.621Z,79.48
2023-05-14T06:44:41.825Z,81.89
2023-05-14T06:47:12.180Z,81.14
2023-05-14T06:49:39.560Z,81.78
2023-05-14T06:52:06.937Z,79.82
2023-05-14T06:54:34.094Z,77.67
2023-05-14T06:57:01.302Z,77.64
2023-05-14T06:59:28.501Z,76.39
2023-05-14T07:01:55.739Z,72.16
2023-05-14T07:04:24.346Z,73.11
2023-05-14T07:06:51.636Z,69.04
2023-05-14T07:09:18.861Z,71.93
2023-05-14T07:11:46.056Z,69.08
2023-05-14T07:14:13.329Z,70.74
2023-05-14T07:16:40.545Z,70.39
2023-05-14T07:19:07.926Z,66.79
2023-05-14T07:21:36.472Z,65.61
2023-05-14T07:24:04.117Z,65.71
2023-05-14T07:26:31.326Z,65.41
2023-05-14T07:28:58.490Z,66.26
2023-05-14T07:31:25.801Z,64.88
2023-05-14T07:33:53.076Z,66.41
2023-05-14T07:36:20.246Z,65.21
2023-05-14T07:38:48.825Z,63.80
2023-05-14T07:41:16.141Z,67.33
2023-05-14T07:43:43.507Z,62.63
2023-05-14T07:46:10.706Z,62.39
2023-05-14T07:48:37.940Z,63.56
2023-05-14T07:51:05.163Z,61.26
2023-05-14T07:53:32.412Z,61.13
2023-05-14T07:56:00.917Z,58.10
2023-05-14T07:58:28.102Z,59.58
2023-05-14T08:00:55.410Z,62.70
2023-05-14T08:03:22.716Z,60.27
2023-05-14T08:05:49.952Z,60.74
2023-05-14T08:08:17.125Z,59.60
2023-05-14T08:10:44.358Z,60.66
2023-05-14T08:13:12.943Z,61.31
2023-05-14T08:15:40.116Z,61.06
2023-05-14T08:18:07.354Z,62.14
2023-05-14T08:20:34.577Z,60.99
2023-05-14T08:23:01.780Z,62.33
2023-05-14T08:25:28.978Z,62.03
2023-05-14T08:27:56.194Z,62.56
2023-05-14T08:30:25.040Z,63.02
2023-05-14T08:32:52.831Z,64.64
2023-05-14T08:35:20.236Z,62.81
2023-05-14T08:37:47.418Z,59.91
2023-05-14T08:40:14.630Z,62.04
2023-05-14T08:42:41.994Z,59.80
2023-05-14T08:45:13.542Z,63.42
2023-05-14T08:47:44.229Z,57.50
2023-05-14T08:50:11.766Z,59.32
2023-05-14T08:52:39.607Z,59.70
2023-05-14T08:55:07.781Z,62.56
2023-05-14T08:57:35.438Z,62.20
2023-05-14T09:00:03.833Z,60.43
2023-05-14T09:02:31.673Z,59.88
2023-05-14T09:05:01.753Z,59.62
2023-05-14T09:07:28.952Z,55.23
2023-05-14T09:09:56.133Z,56.23
2023-05-14T09:12:23.298Z,55.74
2023-05-14T09:14:51.354Z,52.22
2023-05-14T09:17:18.976Z,52.17
2023-05-14T09:19:47.148Z,53.21
2023-05-14T09:22:17.586Z,55.26
2023-05-14T09:24:45.278Z,54.84
2023-05-14T09:27:18.638Z,55.83
2023-05-14T09:29:45.809Z,57.22
2023-05-14T09:32:12.956Z,58.59
2023-05-14T09:34:40.513Z,54.39
2023-05-14T09:37:08.948Z,54.07
2023-05-14T09:39:38.030Z,56.50
2023-05-14T09:42:05.941Z,57.60
2023-05-14T09:44:33.229Z,56.22
2023-05-14T09:47:00.412Z,53.84
2023-05-14T09:49:27.584Z,55.51
2023-05-14T09:51:54.717Z,54.91
2023-05-14T09:54:21.941Z,52.50
2023-05-14T09:56:50.468Z,51.18
2023-05-14T09:59:17.647Z,51.81
2023-05-14T10:01:45.567Z,52.42
2023-05-14T10:04:13.565Z,54.68
2023-05-14T10:06:43.755Z,56.87
2023-05-14T10:09:13.332Z,56.53
2023-05-14T10:11:43.882Z,54.79
2023-05-14T10:14:18.399Z,53.64
2023-05-14T10:16:48.801Z,53.96
2023-05-14T10:19:17.906Z,53.38
2023-05-14T10:21:48.027Z,53.63
2023-05-14T10:24:16.091Z,52.88
2023-05-14T10:26:43.501Z,53.28
2023-05-14T10:29:10.769Z,51.37
2023-05-14T10:31:50.524Z,52.64
2023-05-14T10:34:34.827Z,55.76
2023-05-14T10:37:03.071Z,53.92
2023-05-14T10:39:40.931Z,51.54
2023-05-14T10:42:08.685Z,52.71
2023-05-14T10:44:35.892Z,51.84
2023-05-14T10:47:05.043Z,51.17
2023-05-14T10:49:42.705Z,55.32
2023-05-14T10:52:11.615Z,54.79
2023-05-14T10:54:38.856Z,51.51
2023-05-14T10:57:11.380Z,55.25
2023-05-14T10:59:42.022Z,53.99
2023-05-14T11:02:22.242Z,51.84
2023-05-14T11:04:56.687Z,52.79
2023-05-14T11:07:27.151Z,52.16
2023-05-14T11:09:59.736Z,53.10
2023-05-14T11:12:27.318Z,54.81
2023-05-14T11:14:56.290Z,52.21
2023-05-14T11:17:25.274Z,51.79
2023-05-14T11:19:52.500Z,51.83
2023-05-14T11:22:19.663Z,51.00
2023-05-14T11:24:47.009Z,53.28
2023-05-14T11:27:14.388Z,52.08
2023-05-14T11:29:43.936Z,52.29
2023-05-14T11:32:11.500Z,50.82
2023-05-14T11:34:40.486Z,53.74
2023-05-14T11:37:08.795Z,50.36
2023-05-14T11:39:36.758Z,52.81
2023-05-14T11:42:04.786Z,50.83
2023-05-14T11:44:32.050Z,53.80
2023-05-14T11:46:59.731Z,53.99
2023-05-14T11:49:28.049Z,49.33
2023-05-14T11:52:00.121Z,50.94
2023-05-14T11:54:27.552Z,50.88
2023-05-14T11:56:55.292Z,50.10
2023-05-14T11:59:24.218Z,50.89
2023-05-14T12:01:51.730Z,51.46
2023-05-14T12:04:19.248Z,52.42
2023-05-14T12:06:46.450Z,51.58
2023-05-14T12:09:16.387Z,54.15
2023-05-14T12:11:44.283Z,51.26
2023-05-14T12:14:12.399Z,50.35
2023-05-14T12:16:40.630Z,50.59
2023-05-14T12:19:09.925Z,47.80
2023-05-14T12:21:37.486Z,51.03
2023-05-14T12:24:05.355Z,49.81
2023-05-14T12:26:34.312Z,47.07
2023-05-14T12:29:03.074Z,48.76
2023-05-14T12:31:31.368Z,48.44
2023-05-14T12:33:58.582Z,47.48
2023-05-14T12:36:26.134Z,47.73
2023-05-14T12:38:58.877Z,50.18
2023-05-14T12:41:26.067Z,48.50
2023-05-14T12:43:54.614Z,48.80
2023-05-14T12:46:22.219Z,48.76
2023-05-14T12:48:52.383Z,48.88
2023-05-14T12:51:20.583Z,49.26
2023-05-14T12:53:47.813Z,47.50
2023-05-14T12:56:15.070Z,50.47
2023-05-14T12:58:43.163Z,50.13
2023-05-14T13:01:11.829Z,50.04
2023-05-14T13:03:39.061Z,48.84
2023-05-14T13:06:06.568Z,50.59
2023-05-14T13:08:34.745Z,47.84
2023-05-14T13:11:01.928Z,48.45
2023-05-14T13:13:29.265Z,47.73
2023-05-14T13:15:56.553Z,45.84
2023-05-14T13:18:25.101Z,45.57
2023-05-14T13:20:54.189Z,45.37
2023-05-14T13:23:21.364Z,45.14
2023-05-14T13:25:50.054Z,46.26
2023-05-14T13:28:17.370Z,47.66
2023-05-14T13:31:03.716Z,47.08
2023-05-14T13:33:32.799Z,44.19
2023-05-14T13:36:00.122Z,45.80
2023-05-14T13:38:27.309Z,41.73
2023-05-14T13:40:54.478Z,43.55
2023-05-14T13:43:21.651Z,45.30
2023-05-14T13:45:49.465Z,45.06
2023-05-14T13:48:16.703Z,45.09
2023-05-14T13:50:45.338Z,45.07
2023-05-14T13:53:12.519Z,45.38
2023-05-14T13:55:39.643Z,42.23
2023-05-14T13:58:06.994Z,41.68
2023-05-14T14:00:34.215Z,44.16
2023-05-14T14:03:01.445Z,45.89
2023-05-14T14:05:28.708Z,45.73
2023-05-14T14:08:00.929Z,41.69
2023-05-14T14:10:35.426Z,46.84
2023-05-14T14:13:02.566Z,49.36
2023-05-14T14:15:29.694Z,50.80
2023-05-14T14:17:57.061Z,51.41
2023-05-14T14:20:24.342Z,53.53
2023-05-14T14:22:51.563Z,54.40
2023-05-14T14:25:20.273Z,53.21
2023-05-14T14:27:48.058Z,54.20
2023-05-14T14:30:16.522Z,54.99
2023-05-14T14:32:43.944Z,55.26
2023-05-14T14:35:12.618Z,56.35
2023-05-14T14:37:40.846Z,56.32
2023-05-14T14:40:09.142Z,56.81
2023-05-14T14:42:38.209Z,56.37
2023-05-14T14:45:06.436Z,55.92
2023-05-14T14:47:33.650Z,55.21
2023-05-14T14:50:00.904Z,55.66
2023-05-14T14:52:28.241Z,55.82
2023-05-14T14:54:55.498Z,54.64
2023-05-14T14:57:22.899Z,53.55
2023-05-14T14:59:51.456Z,53.89
2023-05-14T15:02:18.730Z,53.99
2023-05-14T15:04:45.902Z,52.39
2023-05-14T15:07:13.074Z,50.36
2023-05-14T15:09:40.282Z,49.41
2023-05-14T15:12:07.671Z,48.67
2023-05-14T15:14:34.865Z,47.76
2023-05-14T15:17:03.598Z,48.25
2023-05-14T15:19:31.010Z,49.06
2023-05-14T15:21:58.183Z,48.71
2023-05-14T15:24:25.352Z,46.90
2023-05-14T15:26:53.569Z,45.80
2023-05-14T15:29:20.990Z,45.77
2023-05-14T15:31:48.245Z,46.82
2023-05-14T15:34:16.807Z,47.28
2023-05-14T15:36:43.931Z,47.35
2023-05-14T15:39:11.089Z,46.84
2023-05-14T15:41:38.261Z,47.24
2023-05-14T15:44:05.411Z,47.30
2023-05-14T15:46:32.791Z,48.66
2023-05-14T15:48:59.991Z,48.73
2023-05-14T15:51:28.835Z,49.34
2023-05-14T15:53:56.051Z,48.54
2023-05-14T15:56:23.371Z,46.16
2023-05-14T15:58:50.516Z,45.12
2023-05-14T16:01:18.476Z,46.39
2023-05-14T16:03:45.772Z,47.05
2023-05-14T16:06:13.232Z,47.54
2023-05-14T16:08:41.767Z,48.33
2023-05-14T16:11:09.168Z,49.00
2023-05-14T16:13:36.328Z,51.06
2023-05-14T16:16:03.895Z,51.11
2023-05-14T16:18:31.176Z,51.83
2023-05-14T16:20:58.389Z,51.20
2023-05-14T16:23:25.657Z,52.16
2023-05-14T16:25:54.201Z,49.62
2023-05-14T16:28:21.406Z,50.66
2023-05-14T16:30:48.606Z,51.59
2023-05-14T16:33:15.769Z,51.77
2023-05-14T16:35:43.015Z,52.32
2023-05-14T16:38:10.227Z,51.57
2023-05-14T16:40:37.365Z,52.39
2023-05-14T16:43:06.104Z,51.93
2023-05-14T16:45:33.304Z,51.71
2023-05-14T16:48:00.775Z,52.64
2023-05-14T16:50:28.005Z,52.70
2023-05-14T16:52:55.165Z,53.04
2023-05-14T16:55:22.460Z,53.72
2023-05-14T16:57:49.760Z,53.51
2023-05-14T17:00:18.564Z,53.49
2023-05-14T17:02:45.774Z,53.40
2023-05-14T17:05:12.983Z,53.13
2023-05-14T17:07:40.182Z,53.11
2023-05-14T17:10:08.348Z,54.68
2023-05-14T17:12:35.545Z,55.54
2023-05-14T17:15:05.338Z,55.99
2023-05-14T17:17:34.303Z,56.13
2023-05-14T17:20:01.477Z,57.08
2023-05-14T17:22:28.676Z,57.77
2023-05-14T17:24:55.866Z,57.79
2023-05-14T17:27:23.115Z,58.67
2023-05-14T17:29:50.290Z,58.86
2023-05-14T17:32:17.654Z,59.22
2023-05-14T17:34:46.331Z,59.46
2023-05-14T17:37:13.530Z,60.10
2023-05-14T17:39:40.714Z,60.23
2023-05-14T17:42:07.958Z,60.12
2023-05-14T17:44:35.361Z,60.34
2023-05-14T17:47:02.567Z,60.34
2023-05-14T17:49:29.830Z,60.35
2023-05-14T17:51:58.491Z,60.39
2023-05-14T17:54:25.793Z,61.01
2023-05-14T17:56:53.507Z,61.00
2023-05-14T17:59:22.517Z,61.42
2023-05-14T18:01:51.314Z,61.62
2023-05-14T18:04:18.468Z,62.21
2023-05-14T18:06:45.630Z,62.50
2023-05-14T18:09:14.180Z,62.78
2023-05-14T18:11:41.408Z,63.63
2023-05-14T18:14:08.574Z,63.90
2023-05-14T18:16:37.214Z,64.34
2023-05-14T18:19:04.648Z,63.97
2023-05-14T18:21:31.913Z,64.25
2023-05-14T18:23:59.092Z,60.68
2023-05-14T18:26:28.602Z,59.85
2023-05-14T18:28:57.190Z,59.56
2023-05-14T18:31:24.395Z,61.37
2023-05-14T18:33:51.563Z,61.86
2023-05-14T18:36:18.783Z,61.71
2023-05-14T18:38:45.960Z,62.82
2023-05-14T18:41:13.217Z,63.50
2023-05-14T18:43:41.714Z,64.34
2023-05-14T18:46:09.106Z,64.81
2023-05-14T18:48:36.346Z,65.45
2023-05-14T18:51:03.794Z,66.09
2023-05-14T18:53:31.009Z,67.50
2023-05-14T18:55:59.740Z,68.64
2023-05-14T18:58:26.859Z,69.38
2023-05-14T19:00:55.391Z,70.27
2023-05-14T19:03:22.626Z,71.17
2023-05-14T19:05:49.963Z,72.64
2023-05-14T19:08:17.555Z,72.82
2023-05-14T19:10:44.700Z,74.09
2023-05-14T19:13:11.845Z,74.71
2023-05-14T19:15:39.088Z,74.70
2023-05-14T19:18:07.834Z,75.61
2023-05-14T19:20:35.031Z,76.54
2023-05-14T19:23:02.187Z,76.93
2023-05-14T19:25:29.735Z,77.46
2023-05-14T19:27:57.273Z,77.02
2023-05-14T19:30:24.449Z,78.55
2023-05-14T19:32:51.605Z,78.82
2023-05-14T19:35:20.129Z,79.31
2023-05-14T19:37:47.265Z,79.90
2023-05-14T19:40:14.467Z,80.42
2023-05-14T19:42:41.626Z,81.42
2023-05-14T19:45:09.227Z,81.58
2023-05-14T19:47:36.538Z,81.90
2023-05-14T19:50:04.300Z,82.75
2023-05-14T19:52:32.807Z,83.66
2023-05-14T19:54:59.930Z,83.76
2023-05-14T19:57:27.109Z,83.97
2023-05-14T19:59:54.241Z,84.55
2023-05-14T20:02:21.390Z,85.09
2023-05-14T20:04:48.604Z,85.24
2023-05-14T20:07:15.925Z,85.37
2023-05-14T20:09:44.476Z,85.91
2023-05-14T20:12:11.632Z,86.77
2023-05-14T20:14:38.752Z,87.57
2023-05-14T20:17:06.004Z,88.04
2023-05-14T20:19:33.170Z,88.23
2023-05-14T20:22:00.327Z,87.99
2023-05-14T20:24:28.443Z,87.41
2023-05-14T20:26:56.972Z,88.02
2023-05-14T20:29:24.168Z,88.25
2023-05-14T20:31:51.321Z,88.75
2023-05-14T20:34:18.534Z,88.63
2023-05-14T20:36:45.663Z,88.99
2023-05-14T20:39:12.808Z,89.03
2023-05-14T20:41:39.979Z,89.40
2023-05-14T20:44:08.490Z,89.04
2023-05-14T20:46:35.691Z,90.36
2023-05-14T20:49:03.036Z,91.42
2023-05-14T20:51:30.513Z,92.55
2023-05-14T20:53:57.631Z,92.75
2023-05-14T20:56:24.760Z,92.90
2023-05-14T20:58:51.949Z,93.36
2023-05-14T21:01:21.076Z,93.13
2023-05-14T21:03:48.494Z,93.02
2023-05-14T21:06:15.789Z,92.47
2023-05-14T21:08:42.959Z,92.49
2023-05-14T21:11:10.177Z,92.40
2023-05-14T21:13:37.343Z,92.53
2023-05-14T21:16:05.136Z,93.30
2023-05-14T21:18:33.693Z,93.44
2023-05-14T21:21:00.831Z,93.80
2023-05-14T21:23:27.994Z,93.15
2023-05-14T21:25:55.215Z,93.17
2023-05-14T21:28:22.536Z,93.40
2023-05-14T21:30:50.112Z,94.04
2023-05-14T21:33:17.493Z,93.63
2023-05-14T21:35:46.025Z,92.93
2023-05-14T21:38:13.220Z,93.24
2023-05-14T21:40:40.352Z,94.25
2023-05-14T21:43:07.624Z,95.02
2023-05-14T21:45:35.010Z,95.74
2023-05-14T21:48:02.349Z,95.54
2023-05-14T21:50:29.573Z,95.41
2023-05-14T21:52:58.121Z,95.53
2023-05-14T21:55:25.812Z,96.27
2023-05-14T21:57:53.426Z,98.13
2023-05-14T22:00:20.625Z,98.10
2023-05-14T22:02:47.802Z,97.60
2023-05-14T22:05:15.147Z,98.35
2023-05-14T22:07:42.313Z,98.40
2023-05-14T22:10:12.934Z,98.39
2023-05-14T22:12:40.428Z,98.16
2023-05-14T22:15:08.924Z,98.31
2023-05-14T22:17:36.584Z,98.44
2023-05-14T22:20:05.354Z,99.21
2023-05-14T22:22:32.535Z,99.79
2023-05-14T22:25:00.032Z,99.14
2023-05-14T22:27:28.948Z,99.62
2023-05-14T22:29:56.133Z,99.35
2023-05-14T22:32:23.336Z,99.90
2023-05-14T22:34:50.692Z,100.00
2023-05-14T22:37:18.023Z,99.62
2023-05-14T22:39:45.232Z,99.62
2023-05-14T22:42:12.381Z,100.00
2023-05-14T22:44:40.931Z,100.00
2023-05-14T22:47:08.181Z,100.00
2023-05-14T22:49:35.363Z,100.00
2023-05-14T22:52:02.552Z,100.00
2023-05-14T22:54:29.700Z,100.00
2023-05-14T22:56:56.965Z,100.00
2023-05-14T22:59:24.157Z,100.00
2023-05-14T23:01:52.712Z,100.00
2023-05-14T23:04:20.972Z,100.00
2023-05-14T23:06:48.201Z,100.00
2023-05-14T23:09:15.374Z,100.00
2023-05-14T23:11:42.632Z,100.00
2023-05-14T23:14:10.938Z,100.00
2023-05-14T23:16:38.235Z,100.00
2023-05-14T23:19:06.879Z,100.00
2023-05-14T23:21:34.217Z,100.00
2023-05-14T23:24:01.375Z,100.00
2023-05-14T23:26:28.577Z,100.00
2023-05-14T23:28:55.719Z,100.00
2023-05-14T23:31:22.969Z,100.00
2023-05-14T23:33:50.191Z,100.00
2023-05-14T23:36:18.745Z,100.00
2023-05-14T23:38:46.008Z,100.00
2023-05-14T23:41:13.242Z,100.00
2023-05-14T23:43:40.405Z,100.00
2023-05-14T23:46:07.624Z,100.00
2023-05-14T23:48:34.912Z,100.00
2023-05-14T23:51:02.243Z,100.00
2023-05-14T23:53:30.764Z,100.00
2023-05-14T23:55:58.148Z,100.00
2023-05-14T23:58:25.332Z,100.00
